Time;durP1;ratioP1;P1;durP2;ratioP2;P2;SDS_P1;SDS_P2;PMS_P1;PMS_P2;Temp;Humidity;BMP_temperature;BMP_pressure;BME280_temperature;BME280_humidity;BME280_pressure;Samples;Min_cycle;Max_cycle;Signal;HPM_P1;HPM_P2
2024/01/02 00:00:39;;;;;;;4.73;1.70;;;5.90;67.90;;;4.82;69.06;97371.53;5050761;28;20520;-69
2024/01/02 00:03:07;;;;;;;4.77;2.17;;;5.90;68.00;;;4.78;68.67;97371.09;5049260;28;20965;-67
2024/01/02 00:05:34;;;;;;;5.27;3.43;;;5.80;68.00;;;4.85;69.06;97364.97;5051878;28;20510;-69
2024/01/02 00:08:03;;;;;;;5.07;1.87;;;5.90;68.20;;;4.73;69.60;97338.72;5049918;28;20530;-67
2024/01/02 00:10:30;;;;;;;7.50;2.40;;;5.80;68.30;;;4.72;69.52;97353.13;5049088;28;20439;-68
2024/01/02 00:12:58;;;;;;;4.70;1.70;;;5.80;68.40;;;4.65;70.63;97346.91;5050802;28;20461;-68
2024/01/02 00:15:26;;;;;;;5.13;2.07;;;5.70;68.60;;;4.65;70.00;97338.88;5051020;28;20442;-69
2024/01/02 00:17:54;;;;;;;2.20;1.63;;;5.70;68.80;;;4.67;70.66;97334.16;5050172;28;20798;-68
2024/01/02 00:20:21;;;;;;;2.47;1.87;;;5.70;68.90;;;4.78;70.45;97330.97;5057666;28;20453;-68
2024/01/02 00:22:48;;;;;;;5.87;2.37;;;5.80;69.10;;;4.66;70.90;97333.31;5051001;28;20461;-68
2024/01/02 00:25:18;;;;;;;6.30;1.87;;;5.70;69.00;;;4.70;70.91;97323.06;5049358;28;20470;-68
2024/01/02 00:27:46;;;;;;;8.80;2.17;;;5.70;69.20;;;4.64;70.87;97326.53;5038806;28;20454;-68
2024/01/02 00:30:15;;;;;;;8.00;1.83;;;5.70;69.30;;;4.62;71.13;97320.50;5051095;28;20928;-68
2024/01/02 00:32:43;;;;;;;4.40;1.87;;;5.70;69.50;;;4.64;71.86;97318.50;5050142;28;20456;-68
2024/01/02 00:35:10;;;;;;;3.10;1.70;;;5.70;69.60;;;4.59;71.79;97299.50;5052286;28;20462;-67
2024/01/02 00:37:37;;;;;;;3.90;1.77;;;5.70;69.80;;;4.62;72.02;97301.78;5043677;28;20443;-68
2024/01/02 00:40:09;;;;;;;4.00;1.77;;;5.60;69.80;;;4.59;72.25;97305.69;5050338;28;20934;-68
2024/01/02 00:42:40;;;;;;;6.70;2.17;;;5.60;69.90;;;4.54;72.98;97298.25;5044764;28;20464;-68
2024/01/02 00:45:08;;;;;;;4.87;1.93;;;5.60;70.30;;;4.45;73.57;97298.59;5050611;28;20530;-68
2024/01/02 00:47:36;;;;;;;10.20;2.30;;;5.60;70.50;;;4.52;73.68;97296.78;5049604;28;20454;-68
2024/01/02 00:50:04;;;;;;;6.63;1.70;;;5.50;70.60;;;4.51;73.73;97295.97;5046403;28;21040;-68
2024/01/02 00:52:32;;;;;;;3.90;2.17;;;5.60;70.80;;;4.35;73.48;97273.00;5049879;28;20457;-68
2024/01/02 00:54:59;;;;;;;5.13;2.03;;;5.60;71.00;;;4.08;74.09;97224.63;5046714;28;20438;-67
2024/01/02 00:57:26;;;;;;;3.80;1.90;;;5.50;71.00;;;4.54;73.79;97281.34;5057993;28;20589;-68
2024/01/02 00:59:55;;;;;;;6.93;2.00;;;5.60;71.30;;;4.57;74.05;97285.50;5049451;28;20458;-68
2024/01/02 01:02:22;;;;;;;5.43;1.93;;;5.60;71.40;;;4.58;74.58;97276.44;5046792;28;20461;-68
2024/01/02 01:04:49;;;;;;;6.30;2.30;;;5.60;71.40;;;4.59;74.73;97280.78;5044965;28;20489;-68
2024/01/02 01:07:17;;;;;;;4.43;1.93;;;5.60;71.90;;;4.56;74.60;97279.34;5047268;28;20468;-69
2024/01/02 01:09:44;;;;;;;3.83;2.03;;;5.60;71.70;;;4.52;75.50;97272.69;5050329;28;20480;-67
2024/01/02 01:12:13;;;;;;;2.60;1.70;;;5.60;71.90;;;4.55;74.90;97275.00;5046936;28;20470;-68
2024/01/02 01:14:40;;;;;;;5.00;2.33;;;5.60;72.00;;;4.57;75.27;97272.13;5050540;28;20449;-68
2024/01/02 01:17:09;;;;;;;4.30;1.77;;;5.60;72.00;;;4.62;75.39;97267.00;5048655;28;20453;-68
2024/01/02 01:19:37;;;;;;;2.83;1.60;;;5.60;72.20;;;4.58;74.73;97265.75;5043580;28;20541;-68
2024/01/02 01:22:05;;;;;;;6.30;2.20;;;5.60;72.30;;;4.62;75.26;97267.84;5049643;28;20450;-68
2024/01/02 01:24:32;;;;;;;5.90;1.73;;;5.60;72.30;;;4.54;75.47;97252.75;5058980;28;21016;-68
2024/01/02 01:27:00;;;;;;;7.13;2.33;;;5.60;72.50;;;4.61;75.17;97252.81;5053153;28;20446;-68
2024/01/02 01:29:28;;;;;;;3.20;1.77;;;5.60;72.50;;;4.64;75.58;97233.69;5048217;28;20866;-67
2024/01/02 01:31:55;;;;;;;3.57;1.53;;;5.70;72.80;;;4.79;74.70;97246.13;5041659;28;20449;-68
2024/01/02 01:34:24;;;;;;;3.70;1.90;;;5.70;72.60;;;4.68;75.56;97236.81;5037622;28;20449;-68
2024/01/02 01:36:52;;;;;;;6.20;2.13;;;5.70;72.50;;;4.75;75.65;97231.50;5047392;28;20456;-68
2024/01/02 01:39:19;;;;;;;3.70;1.47;;;5.80;72.70;;;4.82;75.05;97224.31;5032124;28;20458;-68
2024/01/02 01:41:46;;;;;;;2.47;1.60;;;5.80;72.80;;;4.75;75.64;97223.47;5048171;28;20453;-68
2024/01/02 01:44:13;;;;;;;3.67;1.53;;;5.80;72.90;;;4.72;75.46;97213.97;5046321;28;20454;-68
2024/01/02 01:46:42;;;;;;;6.47;1.80;;;5.80;72.90;;;4.60;76.41;97221.72;5054403;28;20457;-68
2024/01/02 01:49:11;;;;;;;5.10;1.80;;;5.70;73.00;;;4.75;75.46;97218.09;5040792;28;20480;-69
2024/01/02 01:51:44;;;;;;;4.37;1.83;;;5.70;73.00;;;4.77;75.28;97222.22;5038351;28;20949;-67
2024/01/02 01:54:12;;;;;;;5.53;2.20;;;5.70;73.00;;;4.61;76.29;97210.00;5049821;28;20452;-68
2024/01/02 01:56:41;;;;;;;3.97;1.90;;;5.70;73.20;;;4.78;75.77;97213.19;5049762;28;20873;-68
2024/01/02 01:59:11;;;;;;;2.63;1.67;;;5.70;73.20;;;4.68;75.90;97208.19;5049850;28;21002;-68
2024/01/02 02:01:38;;;;;;;5.90;1.80;;;5.80;73.40;;;4.67;75.76;97211.06;5048422;28;20511;-68
2024/01/02 02:04:07;;;;;;;4.73;1.13;;;5.70;73.20;;;4.67;76.42;97213.75;5041454;28;20443;-68
2024/01/02 02:06:34;;;;;;;12.30;1.80;;;5.70;73.40;;;4.78;75.53;97205.16;5044793;28;20461;-69
2024/01/02 02:09:03;;;;;;;3.80;1.47;;;5.80;73.60;;;4.59;75.94;97181.78;5050296;28;20484;-68
2024/01/02 02:11:32;;;;;;;4.13;1.10;;;5.80;73.50;;;4.73;75.64;97207.59;5058801;28;20460;-68
2024/01/02 02:14:00;;;;;;;3.47;1.40;;;5.80;73.50;;;4.73;76.08;97204.09;5050017;28;20525;-67
2024/01/02 02:16:27;;;;;;;7.27;1.83;;;5.70;73.40;;;4.71;76.13;97204.28;5046675;28;20941;-67
2024/01/02 02:18:56;;;;;;;5.93;1.60;;;5.80;73.70;;;4.80;75.80;97200.44;5049658;28;20462;-68
2024/01/02 02:21:24;;;;;;;2.57;1.33;;;5.80;73.70;;;4.80;76.09;97205.78;5047396;28;20477;-68
2024/01/02 02:23:53;;;;;;;1.57;1.17;;;5.80;73.70;;;4.77;76.64;97189.28;5048786;28;20480;-68
2024/01/02 02:26:20;;;;;;;3.40;1.37;;;5.80;73.70;;;4.77;76.73;97198.13;5048016;28;20448;-68
2024/01/02 02:28:47;;;;;;;2.07;1.40;;;5.80;73.80;;;4.71;76.45;97188.22;5028135;28;20487;-68
2024/01/02 02:31:18;;;;;;;2.63;1.10;;;5.80;73.90;;;4.64;77.21;97190.06;5044613;28;20445;-69
2024/01/02 02:33:45;;;;;;;2.17;0.97;;;5.70;74.00;;;4.68;76.67;97176.06;5049770;28;20445;-69
2024/01/02 02:36:13;;;;;;;3.77;1.20;;;5.80;74.20;;;4.74;77.44;97179.81;5046597;28;20449;-69
2024/01/02 02:38:40;;;;;;;3.23;1.20;;;5.80;74.30;;;4.76;77.31;97180.41;5052195;28;20461;-67
2024/01/02 02:41:09;;;;;;;3.90;1.23;;;5.80;74.60;;;4.76;77.39;97167.03;5049672;28;20460;-69
2024/01/02 02:43:36;;;;;;;3.50;1.77;;;5.80;74.70;;;4.78;78.01;97167.69;5048765;28;20489;-67
2024/01/02 02:46:04;;;;;;;5.20;1.53;;;5.80;74.90;;;4.76;79.06;97159.00;5052396;28;20445;-68
2024/01/02 02:48:33;;;;;;;5.10;1.50;;;5.80;75.50;;;4.81;78.25;97164.63;5051107;28;20522;-69
2024/01/02 02:51:00;;;;;;;1.80;1.30;;;5.80;75.40;;;4.86;78.99;97155.16;5040029;28;20541;-69
2024/01/02 02:53:28;;;;;;;2.47;1.43;;;5.90;75.80;;;4.80;79.57;97160.28;5048688;28;20848;-67
2024/01/02 02:55:57;;;;;;;2.33;1.60;;;5.90;76.20;;;4.86;79.54;97149.78;5050965;28;20476;-67
2024/01/02 02:58:27;;;;;;;8.03;1.50;;;5.90;76.40;;;4.86;79.00;97149.78;5052265;28;20506;-67
2024/01/02 03:00:55;;;;;;;4.50;1.87;;;5.90;76.20;;;4.85;79.74;97142.78;5054599;28;20965;-67
2024/01/02 03:03:23;;;;;;;7.27;1.90;;;5.90;76.60;;;4.81;80.09;97137.84;5064991;28;20468;-67
2024/01/02 03:05:52;;;;;;;3.27;1.00;;;5.90;76.80;;;4.83;80.22;97137.63;5047572;28;20447;-67
2024/01/02 03:08:20;;;;;;;2.60;1.03;;;5.80;77.00;;;4.74;80.69;97120.13;5048940;28;20821;-68
2024/01/02 03:10:50;;;;;;;2.60;1.30;;;5.80;77.30;;;4.79;82.30;97129.19;5053663;28;20484;-68
2024/01/02 03:13:20;;;;;;;2.53;1.13;;;5.80;78.10;;;4.74;82.73;97115.56;5050401;28;20453;-68
2024/01/02 03:16:08;;;;;;;2.43;1.27;;;5.80;78.40;;;4.70;82.67;97106.31;5056953;28;20540;-68
2024/01/02 03:18:35;;;;;;;2.70;1.37;;;5.80;78.70;;;4.82;82.90;97107.38;5041384;28;20560;-69
2024/01/02 03:21:06;;;;;;;4.43;1.03;;;5.80;78.90;;;4.68;82.66;97093.09;5050376;28;20454;-68
2024/01/02 03:23:34;;;;;;;3.20;1.13;;;5.80;79.00;;;4.60;83.65;97085.28;5031176;28;20451;-67
2024/01/02 03:26:01;;;;;;;1.87;1.10;;;5.70;79.40;;;4.59;84.49;97086.31;5042574;28;20541;-67
2024/01/02 03:28:29;;;;;;;3.47;1.20;;;5.70;79.90;;;4.68;84.60;97092.31;5060936;28;20442;-68
2024/01/02 03:30:57;;;;;;;1.40;1.30;;;5.60;80.30;;;4.72;85.15;97069.47;5051372;28;20466;-68
2024/01/02 03:33:26;;;;;;;2.20;1.50;;;5.70;80.60;;;4.65;85.84;97074.78;5051431;28;20871;-67
2024/01/02 03:35:55;;;;;;;2.13;1.47;;;5.70;80.90;;;4.59;85.96;97064.06;5051561;28;20931;-68
2024/01/02 03:38:24;;;;;;;3.77;1.60;;;5.60;81.10;;;4.62;85.71;97055.63;5048200;28;20574;-68
2024/01/02 03:40:51;;;;;;;2.80;1.77;;;5.60;81.20;;;4.56;86.71;97038.56;5063886;28;20864;-68
2024/01/02 03:43:19;;;;;;;5.67;1.63;;;5.60;81.70;;;4.56;86.89;97043.06;5051141;28;20456;-68
2024/01/02 03:45:47;;;;;;;1.47;1.10;;;5.60;82.10;;;4.60;88.04;97029.09;5050935;28;20440;-67
2024/01/02 03:48:16;;;;;;;2.10;1.37;;;5.60;82.60;;;4.39;89.15;97014.81;5046989;28;20447;-68
2024/01/02 03:50:45;;;;;;;5.07;2.17;;;5.50;82.90;;;4.25;89.47;97005.91;5051148;28;20470;-68
2024/01/02 03:53:13;;;;;;;5.90;1.23;;;5.40;83.30;;;4.30;90.39;97009.84;5051086;28;20518;-70
2024/01/02 03:55:40;;;;;;;1.60;1.17;;;5.40;84.00;;;4.32;90.88;97005.09;5043997;28;20449;-68
2024/01/02 03:58:07;;;;;;;2.77;1.47;;;5.40;84.60;;;4.31;90.75;97006.13;5045981;28;20511;-67
2024/01/02 04:00:35;;;;;;;2.00;1.57;;;5.40;85.10;;;4.30;92.36;97001.81;5055972;28;20498;-68
2024/01/02 04:03:04;;;;;;;1.67;1.57;;;5.40;85.80;;;4.21;93.01;96996.66;5049296;28;20457;-68
2024/01/02 04:05:32;;;;;;;2.40;1.37;;;5.30;86.20;;;4.24;92.99;96993.56;5051797;28;20457;-68
2024/01/02 04:08:01;;;;;;;3.97;1.60;;;5.30;86.90;;;4.29;93.15;96978.78;5053649;28;20453;-68
2024/01/02 04:10:28;;;;;;;5.03;1.87;;;5.30;87.30;;;4.21;93.15;96987.78;5051187;28;20472;-68
2024/01/02 04:12:55;;;;;;;3.40;1.20;;;5.30;87.50;;;4.29;93.91;96976.09;5050826;28;20512;-67
2024/01/02 04:15:23;;;;;;;2.70;1.60;;;5.30;88.40;;;4.32;94.07;96962.31;5051305;28;20807;-68
2024/01/02 04:17:50;;;;;;;2.57;1.60;;;5.40;88.90;;;4.25;94.44;96965.00;5052192;28;20520;-68
2024/01/02 04:20:18;;;;;;;4.03;1.53;;;5.30;89.20;;;4.16;95.74;96961.66;5065080;28;20465;-68
2024/01/02 04:22:46;;;;;;;2.23;1.40;;;5.30;89.70;;;4.10;96.58;96952.59;5048889;28;20457;-68
2024/01/02 04:25:14;;;;;;;3.90;1.47;;;5.20;90.30;;;4.09;96.60;96968.84;5049853;28;20818;-69
2024/01/02 04:27:42;;;;;;;3.67;1.40;;;5.20;90.40;;;4.22;96.48;96952.00;5048686;28;20453;-68
2024/01/02 04:30:13;;;;;;;4.27;2.00;;;5.20;90.80;;;4.09;97.05;96939.44;5051343;28;20483;-67
2024/01/02 04:32:41;;;;;;;2.93;1.63;;;5.20;90.90;;;4.07;97.25;96955.66;5045914;28;20512;-68
2024/01/02 04:35:09;;;;;;;2.23;1.43;;;5.20;91.00;;;4.13;97.96;96943.34;5043583;28;20789;-68
2024/01/02 04:37:38;;;;;;;2.57;1.43;;;5.20;91.50;;;4.07;98.49;96928.13;5045124;28;20469;-68
2024/01/02 04:40:10;;;;;;;1.53;1.43;;;5.20;91.50;;;4.19;98.41;96925.69;5057846;28;20464;-68
2024/01/02 04:42:39;;;;;;;3.73;1.63;;;5.20;91.90;;;4.08;98.72;96924.41;5042295;28;21016;-68
2024/01/02 04:45:09;;;;;;;2.33;1.60;;;5.20;91.80;;;4.00;99.13;96906.72;5050854;28;20460;-68
2024/01/02 04:47:37;;;;;;;5.40;2.10;;;5.20;92.00;;;3.93;99.83;96896.00;5058277;28;20484;-68
2024/01/02 04:50:05;;;;;;;3.47;1.77;;;5.10;92.30;;;4.10;100.00;96903.66;5051249;28;20496;-68
2024/01/02 04:52:32;;;;;;;5.70;1.90;;;5.10;92.50;;;4.04;99.77;96907.94;5048655;28;20815;-69
2024/01/02 04:55:00;;;;;;;3.50;2.10;;;5.10;92.50;;;3.71;99.84;96849.03;5048989;28;20453;-69
2024/01/02 04:57:28;;;;;;;2.40;1.37;;;5.10;92.50;;;4.12;99.43;96885.56;5047074;28;20549;-67
2024/01/02 04:59:59;;;;;;;4.27;2.00;;;5.10;92.80;;;3.99;100.00;96874.81;5046755;28;20582;-67
2024/01/02 05:02:26;;;;;;;3.93;2.13;;;5.10;92.80;;;3.99;100.00;96858.78;5048443;28;20914;-68
2024/01/02 05:04:53;;;;;;;5.00;1.60;;;5.10;93.50;;;4.02;100.00;96866.41;5000318;28;20976;-68
2024/01/02 05:07:20;;;;;;;4.13;2.07;;;5.10;93.50;;;3.55;100.00;96789.59;5048235;28;20454;-68
2024/01/02 05:09:50;;;;;;;2.63;2.00;;;5.10;93.60;;;3.93;100.00;96853.22;5047646;28;20457;-68
2024/01/02 05:12:17;;;;;;;3.67;1.90;;;5.00;93.80;;;3.86;100.00;96843.56;5031460;28;20463;-68
2024/01/02 05:14:45;;;;;;;1.63;1.50;;;5.00;94.10;;;3.82;100.00;96835.09;5050311;28;20501;-68
2024/01/02 05:17:17;;;;;;;2.77;1.43;;;4.90;94.60;;;3.83;100.00;96837.59;5044842;28;20442;-68
2024/01/02 05:19:47;;;;;;;2.10;1.80;;;4.90;95.10;;;3.87;100.00;96819.31;5050353;28;20449;-68
2024/01/02 05:22:14;;;;;;;3.43;1.73;;;4.90;95.40;;;3.78;100.00;96812.50;5049351;28;20455;-68
2024/01/02 05:24:41;;;;;;;2.10;1.53;;;4.90;95.20;;;3.80;100.00;96794.41;5045896;28;20542;-68
2024/01/02 05:27:08;;;;;;;4.43;1.70;;;4.90;95.40;;;3.77;100.00;96778.78;5042741;28;20450;-68
2024/01/02 05:29:36;;;;;;;3.17;1.77;;;4.90;95.60;;;3.72;100.00;96770.56;5049126;28;20457;-68
2024/01/02 05:32:04;;;;;;;2.63;1.60;;;4.80;95.70;;;3.73;100.00;96769.53;5050404;28;20500;-68
2024/01/02 05:34:32;;;;;;;4.50;1.80;;;4.80;96.00;;;3.71;100.00;96774.22;5049861;28;20518;-67
2024/01/02 05:37:00;;;;;;;2.40;1.47;;;4.80;96.20;;;3.71;100.00;96775.06;5039286;28;20509;-67
2024/01/02 05:39:27;;;;;;;5.10;1.60;;;4.80;96.20;;;3.72;100.00;96778.59;5030860;28;20465;-69
2024/01/02 05:41:55;;;;;;;3.23;1.33;;;4.90;96.00;;;3.75;100.00;96762.13;5043648;28;20450;-69
2024/01/02 05:44:22;;;;;;;2.27;1.50;;;4.90;96.00;;;3.77;100.00;96768.09;5047537;28;20452;-66
2024/01/02 05:46:50;;;;;;;3.37;1.90;;;4.90;96.10;;;3.76;100.00;96758.44;5047140;28;20460;-67
2024/01/02 05:49:17;;;;;;;2.50;1.40;;;4.90;96.10;;;3.25;100.00;96669.78;5049949;28;20457;-68
2024/01/02 05:51:45;;;;;;;3.23;1.53;;;4.90;96.30;;;3.69;100.00;96729.84;5047763;28;20542;-68
2024/01/02 05:54:13;;;;;;;1.87;1.37;;;4.80;96.00;;;3.78;100.00;96745.69;5049616;28;20502;-67
2024/01/02 05:56:40;;;;;;;2.70;2.00;;;4.90;95.70;;;3.82;100.00;96749.59;5048140;28;20482;-67
2024/01/02 05:59:08;;;;;;;2.63;1.50;;;4.90;95.60;;;3.69;100.00;96719.16;5049517;28;21002;-67
2024/01/02 06:01:35;;;;;;;2.07;1.47;;;4.90;95.60;;;3.78;100.00;96716.31;5060226;28;20438;-67
2024/01/02 06:04:02;;;;;;;1.93;1.37;;;4.90;95.40;;;3.80;100.00;96719.59;5045013;28;20498;-67
2024/01/02 06:06:29;;;;;;;1.50;1.27;;;4.90;95.50;;;3.76;100.00;96715.69;5045727;28;20962;-68
2024/01/02 06:08:58;;;;;;;7.20;1.87;;;4.90;95.40;;;3.77;100.00;96710.13;5049890;28;20453;-68
2024/01/02 06:11:25;;;;;;;3.30;1.77;;;4.90;95.70;;;3.74;100.00;96699.06;5046278;28;20532;-68
2024/01/02 06:13:52;;;;;;;1.63;1.30;;;4.90;95.40;;;3.81;100.00;96698.03;5045730;28;20464;-68
2024/01/02 06:16:20;;;;;;;4.83;1.20;;;4.90;96.10;;;3.72;100.00;96675.19;5063146;28;20473;-68
2024/01/02 06:18:47;;;;;;;1.63;1.20;;;4.90;95.80;;;3.73;100.00;96673.38;5052046;28;20455;-68
2024/01/02 06:21:14;;;;;;;5.17;1.20;;;4.90;95.20;;;3.84;100.00;96691.44;5051473;28;20950;-68
2024/01/02 06:23:41;;;;;;;3.00;1.63;;;4.90;94.90;;;3.88;100.00;96689.19;5059844;28;20445;-68
2024/01/02 06:26:10;;;;;;;4.80;1.47;;;5.00;94.50;;;3.91;100.00;96684.25;5051147;28;20449;-68
2024/01/02 06:28:37;;;;;;;2.40;1.10;;;5.00;94.80;;;3.88;100.00;96683.84;5045513;28;20480;-67
2024/01/02 06:31:05;;;;;;;3.50;1.60;;;5.00;94.90;;;3.79;100.00;96668.03;5053514;28;20952;-68
2024/01/02 06:33:32;;;;;;;4.03;1.63;;;5.00;95.10;;;3.90;100.00;96677.25;5051432;28;20949;-68
2024/01/02 06:36:00;;;;;;;3.17;1.40;;;5.00;95.00;;;3.88;100.00;96670.47;5047883;28;20449;-68
2024/01/02 06:38:27;;;;;;;2.10;1.20;;;5.00;94.70;;;4.00;100.00;96673.34;5050963;28;20460;-68
2024/01/02 06:40:55;;;;;;;2.97;1.00;;;5.00;94.60;;;3.97;100.00;96672.72;5035619;28;20454;-68
2024/01/02 06:43:24;;;;;;;2.00;1.47;;;5.10;94.20;;;4.06;100.00;96669.84;5052680;28;20448;-68
2024/01/02 06:45:51;;;;;;;3.33;1.70;;;5.10;94.70;;;4.00;100.00;96676.84;5057494;28;20453;-68
2024/01/02 06:48:18;;;;;;;3.67;1.63;;;5.10;94.20;;;4.09;100.00;96658.75;5052237;28;20464;-68
2024/01/02 06:50:46;;;;;;;2.90;1.57;;;5.10;94.50;;;3.99;100.00;96675.22;5052129;28;20488;-67
2024/01/02 06:53:13;;;;;;;3.50;1.40;;;5.10;94.20;;;3.99;100.00;96674.38;5051053;28;21018;-67
2024/01/02 06:55:41;;;;;;;3.80;1.70;;;5.10;94.30;;;4.01;100.00;96670.47;5054964;28;20945;-69
2024/01/02 06:58:08;;;;;;;6.40;1.90;;;5.10;94.30;;;4.02;100.00;96673.94;5051308;28;20457;-68
2024/01/02 07:00:37;;;;;;;3.23;1.70;;;5.10;94.60;;;4.04;100.00;96661.22;5053009;28;20522;-70
2024/01/02 07:03:05;;;;;;;1.90;1.63;;;5.10;94.70;;;4.07;100.00;96682.19;5051717;28;20458;-69
2024/01/02 07:05:32;;;;;;;1.67;1.43;;;5.10;94.80;;;4.13;100.00;96675.19;5051190;28;20448;-69
2024/01/02 07:08:00;;;;;;;5.30;1.73;;;5.20;94.80;;;4.19;100.00;96647.63;5045289;28;21027;-69
2024/01/02 07:10:27;;;;;;;1.83;1.70;;;5.20;94.60;;;4.16;100.00;96654.19;5045845;28;20453;-70
2024/01/02 07:12:55;;;;;;;3.83;1.47;;;5.20;94.30;;;4.19;100.00;96653.81;5050980;28;21222;-69
2024/01/02 07:15:22;;;;;;;1.60;1.50;;;5.20;94.30;;;4.14;100.00;96653.59;5052633;28;20463;-72
2024/01/02 07:17:51;;;;;;;3.67;1.90;;;5.20;94.40;;;4.19;100.00;96643.13;5055888;28;20940;-71
2024/01/02 07:20:20;;;;;;;2.77;1.47;;;5.20;94.50;;;4.14;100.00;96615.34;5052076;28;20454;-70
2024/01/02 07:22:48;;;;;;;6.27;1.70;;;5.30;94.00;;;4.16;100.00;96642.69;5050423;28;20484;-71
2024/01/02 07:25:16;;;;;;;1.97;1.60;;;5.20;94.10;;;4.15;100.00;96633.03;5051586;28;20456;-72
2024/01/02 07:27:44;;;;;;;3.60;1.70;;;5.20;94.60;;;4.26;100.00;96621.72;5051400;28;20457;-71
2024/01/02 07:30:13;;;;;;;2.57;1.57;;;5.30;94.40;;;4.24;100.00;96608.53;5047093;28;20458;-72
2024/01/02 07:32:40;;;;;;;2.10;1.50;;;5.30;93.80;;;4.19;100.00;96631.59;5046962;28;20480;-70
2024/01/02 07:35:10;;;;;;;5.23;1.73;;;5.30;93.80;;;4.25;100.00;96642.28;5048304;28;20487;-70
2024/01/02 07:37:37;;;;;;;4.07;1.60;;;5.30;93.90;;;4.26;100.00;96616.38;5042504;28;20449;-69
2024/01/02 07:40:07;;;;;;;1.97;1.37;;;5.30;94.50;;;4.25;100.00;96604.03;5053192;28;20958;-68
2024/01/02 07:42:37;;;;;;;2.93;1.80;;;5.30;93.60;;;4.23;100.00;96614.91;5050329;28;20453;-68
2024/01/02 07:45:06;;;;;;;2.63;1.60;;;5.30;93.70;;;4.32;100.00;96603.97;5048153;28;20460;-68
2024/01/02 07:47:34;;;;;;;5.27;2.50;;;5.30;93.60;;;4.31;100.00;96602.34;5050344;28;20453;-69
2024/01/02 07:50:04;;;;;;;1.93;1.30;;;5.40;94.00;;;4.19;100.00;96591.47;5052024;28;20450;-68
2024/01/02 07:52:36;;;;;;;2.50;1.50;;;5.30;94.10;;;4.14;100.00;96575.25;5049947;28;20487;-68
2024/01/02 07:55:05;;;;;;;3.17;1.50;;;5.30;94.30;;;4.13;100.00;96569.06;5051964;28;20453;-68
2024/01/02 07:57:32;;;;;;;1.90;1.70;;;5.20;94.50;;;4.24;100.00;96579.13;5050585;28;20453;-68
2024/01/02 07:59:59;;;;;;;2.80;1.80;;;5.30;94.80;;;4.27;100.00;96575.22;5065649;28;20445;-69
2024/01/02 08:02:27;;;;;;;1.87;1.47;;;5.30;95.30;;;4.30;100.00;96568.63;5047942;28;20462;-68
2024/01/02 08:04:54;;;;;;;6.50;1.30;;;5.30;94.90;;;4.20;100.00;96569.91;5043707;28;20512;-69
2024/01/02 08:07:21;;;;;;;2.30;1.60;;;5.30;95.00;;;4.31;100.00;96575.59;5049452;28;20484;-69
2024/01/02 08:09:50;;;;;;;3.30;1.67;;;5.40;95.60;;;4.30;100.00;96557.91;5051419;28;20455;-69
2024/01/02 08:12:18;;;;;;;2.43;1.23;;;5.40;96.10;;;4.38;100.00;96558.50;5047739;28;20968;-68
2024/01/02 08:14:46;;;;;;;3.70;1.30;;;5.40;96.20;;;4.32;100.00;96558.53;5051759;28;20507;-68
2024/01/02 08:17:14;;;;;;;8.67;1.93;;;5.40;95.50;;;4.47;100.00;96567.09;5047496;28;20942;-69
2024/01/02 08:19:41;;;;;;;2.20;1.63;;;5.40;96.00;;;4.37;100.00;96569.44;5051515;28;20437;-69
2024/01/02 08:22:10;;;;;;;3.67;2.47;;;5.40;95.80;;;4.43;100.00;96563.22;5050427;28;20462;-69
2024/01/02 08:24:38;;;;;;;2.70;1.40;;;5.40;96.00;;;4.53;100.00;96554.75;5043269;28;20494;-68
2024/01/02 08:27:07;;;;;;;2.47;1.47;;;5.50;96.40;;;4.50;100.00;96565.88;5031920;28;20445;-69
2024/01/02 08:29:35;;;;;;;3.03;1.30;;;5.50;96.10;;;4.49;100.00;96564.22;5049512;28;20445;-70
2024/01/02 08:32:02;;;;;;;2.37;1.50;;;5.50;96.10;;;4.51;100.00;96557.66;5050690;28;20538;-71
2024/01/02 08:34:30;;;;;;;2.73;1.33;;;5.50;96.10;;;4.56;100.00;96570.38;5049098;28;20510;-69
2024/01/02 08:36:57;;;;;;;5.30;1.50;;;5.50;96.10;;;4.63;100.00;96570.38;5045019;28;20450;-69
2024/01/02 08:39:24;;;;;;;2.67;1.87;;;5.60;96.10;;;4.66;100.00;96568.06;5050250;28;20511;-71
2024/01/02 08:41:52;;;;;;;2.37;1.60;;;5.60;95.90;;;4.66;100.00;96569.94;5047918;28;20457;-69
2024/01/02 08:44:21;;;;;;;2.80;1.20;;;5.60;95.80;;;4.75;100.00;96565.97;5050768;28;20504;-69
2024/01/02 08:46:48;;;;;;;1.37;1.23;;;5.70;96.30;;;4.65;100.00;96561.06;5049542;28;20464;-70
2024/01/02 08:49:16;;;;;;;1.43;1.10;;;5.70;95.50;;;4.76;100.00;96554.22;5050297;28;20793;-69
2024/01/02 08:51:45;;;;;;;1.93;1.57;;;5.70;96.00;;;4.87;100.00;96558.09;5048985;28;20856;-69
2024/01/02 08:54:12;;;;;;;2.00;1.50;;;5.80;96.00;;;4.86;100.00;96561.81;5050812;28;20445;-69
2024/01/02 08:56:39;;;;;;;1.70;1.40;;;5.90;96.00;;;4.87;100.00;96557.25;5040694;28;20508;-70
2024/01/02 08:59:07;;;;;;;2.30;1.50;;;5.90;96.00;;;4.90;100.00;96556.81;5049315;28;20795;-69
2024/01/02 09:01:36;;;;;;;1.77;1.33;;;5.90;96.10;;;4.96;100.00;96561.34;5048012;28;20887;-70
2024/01/02 09:04:04;;;;;;;1.97;1.43;;;5.90;95.80;;;5.05;100.00;96554.66;5049874;28;20453;-69
2024/01/02 09:06:31;;;;;;;2.70;1.40;;;6.00;96.00;;;5.00;100.00;96551.81;5049569;28;20450;-69
2024/01/02 09:09:00;;;;;;;2.03;1.40;;;6.00;95.70;;;4.99;100.00;96552.88;5049581;28;20449;-69
2024/01/02 09:11:27;;;;;;;1.50;1.40;;;6.00;95.70;;;5.28;100.00;96553.28;5049308;28;20473;-69
2024/01/02 09:13:54;;;;;;;1.73;1.63;;;6.10;96.00;;;5.13;100.00;96555.47;5049332;28;20453;-70
2024/01/02 09:16:22;;;;;;;2.33;1.37;;;6.10;95.10;;;5.17;100.00;96543.28;5048600;28;20458;-70
2024/01/02 09:18:51;;;;;;;2.10;1.47;;;6.20;95.50;;;4.69;100.00;96481.19;5046877;28;20450;-70
2024/01/02 09:21:18;;;;;;;3.37;1.40;;;6.10;95.30;;;5.27;100.00;96551.66;5046546;28;20465;-69
2024/01/02 09:23:46;;;;;;;4.90;1.40;;;6.10;95.60;;;5.32;100.00;96537.63;5049398;28;20847;-69
2024/01/02 09:26:19;;;;;;;7.03;1.67;;;6.20;95.30;;;5.28;100.00;96542.56;5047119;28;20454;-69
2024/01/02 09:28:47;;;;;;;1.77;1.20;;;6.30;95.20;;;5.36;100.00;96542.28;5050105;28;20450;-69
2024/01/02 09:31:14;;;;;;;1.63;1.30;;;6.30;95.10;;;5.35;100.00;96556.72;5044567;28;20454;-69
2024/01/02 09:33:43;;;;;;;1.27;1.17;;;6.30;94.80;;;5.39;100.00;96546.41;5042482;28;20513;-69
2024/01/02 09:36:15;;;;;;;1.53;1.30;;;6.40;94.80;;;5.42;100.00;96547.84;5048520;28;20477;-69
2024/01/02 09:38:43;;;;;;;1.70;1.20;;;6.40;94.40;;;5.61;100.00;96546.84;5035832;28;20446;-69
2024/01/02 09:41:40;;;;;;;4.70;1.57;;;6.50;94.70;;;5.59;100.00;96540.03;5041034;28;20447;-69
2024/01/02 09:44:28;;;;;;;1.20;1.10;;;6.60;94.00;;;5.68;100.00;96547.59;5025394;28;20458;-70
2024/01/02 09:47:13;;;;;;;1.67;1.53;;;6.60;94.00;;;5.27;100.00;96492.72;5040833;28;20969;-69
2024/01/02 09:49:57;;;;;;;1.60;1.50;;;6.60;94.00;;;5.71;100.00;96548.22;5057060;28;20458;-70
2024/01/02 09:52:45;;;;;;;2.20;1.17;;;6.70;93.70;;;5.88;100.00;96546.59;5046504;28;20922;-70
2024/01/02 09:55:22;;;;;;;1.37;1.00;;;6.70;93.50;;;5.89;100.00;96547.41;5047287;28;20446;-70
2024/01/02 09:58:15;;;;;;;1.77;1.50;;;6.80;93.40;;;5.84;100.00;96540.03;5045341;28;20469;-70
2024/01/02 10:00:54;;;;;;;1.10;1.00;;;6.80;93.10;;;5.31;100.00;96472.50;5043593;28;20496;-69
2024/01/02 10:03:49;;;;;;;1.73;1.20;;;6.80;93.10;;;5.78;100.00;96551.63;5048679;28;20568;-69
2024/01/02 10:06:38;;;;;;;2.60;1.93;;;6.80;93.10;;;5.83;100.00;96527.66;5044955;28;20450;-71
2024/01/02 10:09:37;;;;;;;1.70;1.17;;;6.80;93.30;;;5.95;100.00;96536.59;5049809;28;20531;-70
2024/01/02 10:12:19;;;;;;;2.30;1.37;;;6.90;93.50;;;6.08;100.00;96533.03;5042644;28;20477;-70
2024/01/02 10:15:00;;;;;;;1.60;0.80;;;7.00;93.60;;;6.13;100.00;96526.97;5047224;28;20465;-69
2024/01/02 10:17:48;;;;;;;1.50;1.40;;;7.00;93.40;;;6.38;98.90;96531.44;5044300;28;20466;-70
2024/01/02 10:20:28;;;;;;;1.70;1.37;;;7.10;93.10;;;6.26;99.13;96514.44;5031127;28;20827;-70
2024/01/02 10:23:08;;;;;;;1.03;0.93;;;7.20;92.60;;;6.07;98.84;96463.50;5049029;28;20505;-70
2024/01/02 10:25:39;;;;;;;2.10;1.57;;;7.20;92.70;;;6.43;98.34;96520.84;5049595;28;20915;-69
2024/01/02 10:28:15;;;;;;;4.13;1.70;;;7.30;92.50;;;6.45;97.96;96513.41;5047859;28;20478;-68
2024/01/02 10:30:53;;;;;;;1.23;1.13;;;7.40;92.30;;;6.47;98.06;96522.03;5046235;28;20477;-69
2024/01/02 10:33:32;;;;;;;2.00;1.60;;;7.40;92.20;;;6.54;97.89;96521.13;5041051;28;20484;-69
2024/01/02 10:36:03;;;;;;;1.40;1.20;;;7.40;92.30;;;6.54;98.58;96516.59;5053532;28;20453;-69
2024/01/02 10:38:43;;;;;;;1.83;0.80;;;7.40;92.40;;;6.47;98.78;96519.34;5035737;28;20463;-69